createdAt,value
2022-12-11T00:01:16.479Z,5.77
2022-12-11T00:03:46.002Z,5.77
2022-12-11T00:06:16.388Z,6.20
2022-12-11T00:08:46.827Z,6.37
2022-12-11T00:11:17.446Z,6.93
2022-12-11T00:13:46.161Z,6.77
2022-12-11T00:16:14.536Z,7.17
2022-12-11T00:18:43.048Z,7.43
2022-12-11T00:21:15.523Z,6.07
2022-12-11T00:23:45.482Z,6.67
2022-12-11T00:26:16.128Z,7.97
2022-12-11T00:28:45.593Z,6.70
2022-12-11T00:31:16.595Z,6.97
2022-12-11T00:33:45.244Z,6.13
2022-12-11T00:36:14.919Z,6.63
2022-12-11T00:38:44.989Z,5.77
2022-12-11T00:41:13.784Z,6.67
2022-12-11T00:43:42.041Z,6.23
2022-12-11T00:46:10.743Z,6.10
2022-12-11T00:48:39.900Z,7.53
2022-12-11T00:51:08.542Z,6.80
2022-12-11T00:53:37.236Z,6.40
2022-12-11T00:56:13.632Z,6.93
2022-12-11T00:58:42.149Z,7.50
2022-12-11T01:01:11.258Z,7.50
2022-12-11T01:03:40.230Z,7.63
2022-12-11T01:06:09.613Z,7.73
2022-12-11T01:08:38.789Z,8.37
2022-12-11T01:11:08.471Z,7.80
2022-12-11T01:13:39.596Z,7.73
2022-12-11T01:16:09.662Z,8.23
2022-12-11T01:18:38.662Z,9.00
2022-12-11T01:21:08.424Z,9.47
2022-12-11T01:23:37.341Z,8.73
2022-12-11T01:26:10.195Z,6.93
2022-12-11T01:28:40.153Z,8.07
2022-12-11T01:31:10.658Z,7.40
2022-12-11T01:33:38.932Z,7.63
2022-12-11T01:36:10.647Z,6.80
2022-12-11T01:38:39.334Z,6.03
2022-12-11T01:41:08.225Z,6.63
2022-12-11T01:43:37.635Z,8.67
2022-12-11T01:46:07.678Z,6.50
2022-12-11T01:48:40.782Z,7.73
2022-12-11T01:51:11.181Z,7.80
2022-12-11T01:53:41.940Z,8.17
2022-12-11T01:56:11.809Z,7.40
2022-12-11T01:58:44.175Z,4.53
2022-12-11T02:01:19.791Z,5.43
2022-12-11T02:03:48.177Z,5.93
2022-12-11T02:06:35.786Z,5.50
2022-12-11T02:09:05.895Z,5.23
2022-12-11T02:11:44.644Z,5.23
2022-12-11T02:14:21.367Z,5.80
2022-12-11T02:16:57.137Z,5.63
2022-12-11T02:19:46.082Z,6.60
2022-12-11T02:22:22.782Z,5.53
2022-12-11T02:25:05.280Z,6.33
2022-12-11T02:27:42.066Z,4.80
2022-12-11T02:30:14.692Z,4.87
2022-12-11T02:32:48.525Z,5.40
2022-12-11T02:35:21.304Z,5.00
2022-12-11T02:37:54.448Z,4.33
2022-12-11T02:40:26.844Z,3.90
2022-12-11T02:42:57.645Z,5.60
2022-12-11T02:45:28.612Z,4.80
2022-12-11T02:48:00.729Z,4.20
2022-12-11T02:50:30.266Z,6.10
2022-12-11T02:53:00.863Z,5.07
2022-12-11T02:55:31.823Z,4.00
2022-12-11T02:58:06.439Z,4.30
2022-12-11T03:00:36.873Z,4.37
2022-12-11T03:03:05.840Z,4.63
2022-12-11T03:05:34.100Z,4.10
2022-12-11T03:08:05.091Z,4.83
2022-12-11T03:10:33.940Z,4.67
2022-12-11T03:13:03.626Z,5.10
2022-12-11T03:15:40.723Z,5.23
2022-12-11T03:18:16.769Z,4.23
2022-12-11T03:20:47.936Z,4.97
2022-12-11T03:23:22.284Z,4.30
2022-12-11T03:25:55.796Z,4.53
2022-12-11T03:28:30.366Z,4.40
2022-12-11T03:31:06.624Z,4.53
2022-12-11T03:33:38.512Z,5.37
2022-12-11T03:36:12.629Z,4.77
2022-12-11T03:38:48.429Z,5.20
2022-12-11T03:41:20.119Z,6.17
2022-12-11T03:43:51.445Z,5.50
2022-12-11T03:46:23.558Z,4.97
2022-12-11T03:48:54.852Z,5.70
2022-12-11T03:51:24.371Z,5.00
2022-12-11T03:53:54.300Z,5.57
2022-12-11T03:56:23.417Z,5.23
2022-12-11T03:58:52.211Z,4.70
2022-12-11T04:01:22.127Z,4.47
2022-12-11T04:03:50.723Z,4.13
2022-12-11T04:06:19.481Z,4.23
2022-12-11T04:08:47.650Z,4.77
2022-12-11T04:11:33.784Z,4.33
2022-12-11T04:14:25.330Z,3.80
2022-12-11T04:16:56.184Z,3.87
2022-12-11T04:19:43.125Z,4.30
2022-12-11T04:22:29.268Z,4.27
2022-12-11T04:24:57.555Z,3.50
2022-12-11T04:27:43.332Z,3.63
2022-12-11T04:30:15.293Z,3.47
2022-12-11T04:32:45.407Z,4.30
2022-12-11T04:35:14.298Z,4.47
2022-12-11T04:37:42.934Z,4.83
2022-12-11T04:40:14.249Z,4.33
2022-12-11T04:42:43.514Z,4.80
2022-12-11T04:45:13.251Z,4.47
2022-12-11T04:47:42.782Z,5.03
2022-12-11T04:50:14.519Z,4.37
2022-12-11T04:52:43.713Z,6.60
2022-12-11T04:55:13.423Z,4.93
2022-12-11T04:57:42.072Z,4.80
2022-12-11T05:00:12.977Z,5.03
2022-12-11T05:02:42.350Z,5.40
2022-12-11T05:05:14.061Z,5.93
2022-12-11T05:07:43.589Z,4.23
2022-12-11T05:10:11.951Z,4.47
2022-12-11T05:12:41.235Z,5.37
2022-12-11T05:15:10.761Z,4.57
2022-12-11T05:17:39.269Z,5.90
2022-12-11T05:20:08.796Z,5.40
2022-12-11T05:22:39.126Z,5.93
2022-12-11T05:25:08.518Z,5.60
2022-12-11T05:27:36.925Z,6.33
2022-12-11T05:30:05.867Z,5.93
2022-12-11T05:32:33.977Z,6.37
2022-12-11T05:35:04.236Z,5.37
2022-12-11T05:37:34.485Z,6.57
2022-12-11T05:40:06.656Z,6.17
2022-12-11T05:42:36.782Z,5.60
2022-12-11T05:45:06.174Z,6.20
2022-12-11T05:47:34.910Z,6.00
2022-12-11T05:50:03.233Z,7.67
2022-12-11T05:52:33.121Z,6.50
2022-12-11T05:55:01.347Z,6.70
2022-12-11T05:57:30.805Z,5.87
2022-12-11T05:59:59.667Z,6.47
2022-12-11T06:02:28.268Z,6.73
2022-12-11T06:04:56.580Z,5.30
2022-12-11T06:07:24.753Z,5.80
2022-12-11T06:09:52.987Z,6.67
2022-12-11T06:12:21.271Z,7.03
2022-12-11T06:14:51.219Z,6.67
2022-12-11T06:17:19.888Z,7.10
2022-12-11T06:19:47.991Z,6.60
2022-12-11T06:22:16.278Z,7.20
2022-12-11T06:24:44.836Z,6.63
2022-12-11T06:27:12.909Z,6.40
2022-12-11T06:29:41.648Z,6.00
2022-12-11T06:32:11.690Z,5.50
2022-12-11T06:34:39.972Z,6.80
2022-12-11T06:37:08.172Z,5.20
2022-12-11T06:39:36.959Z,6.63
2022-12-11T06:42:05.387Z,6.80
2022-12-11T06:44:33.577Z,6.00
2022-12-11T06:47:02.554Z,6.23
2022-12-11T06:49:32.084Z,6.27
2022-12-11T06:52:00.248Z,5.23
2022-12-11T06:54:29.140Z,6.60
2022-12-11T06:56:57.295Z,5.97
2022-12-11T06:59:26.752Z,5.57
2022-12-11T07:01:55.655Z,5.30
2022-12-11T07:04:24.935Z,5.10
2022-12-11T07:06:54.491Z,6.13
2022-12-11T07:09:23.982Z,6.33
2022-12-11T07:11:52.575Z,6.50
2022-12-11T07:14:21.006Z,6.27
2022-12-11T07:16:50.016Z,5.57
2022-12-11T07:19:19.723Z,6.60
2022-12-11T07:21:47.863Z,6.37
2022-12-11T07:24:17.786Z,6.40
2022-12-11T07:26:46.521Z,6.13
2022-12-11T07:29:14.755Z,5.77
2022-12-11T07:31:43.547Z,6.17
2022-12-11T07:34:14.096Z,5.90
2022-12-11T07:36:43.578Z,5.80
2022-12-11T07:39:15.555Z,6.03
2022-12-11T07:41:45.994Z,4.73
2022-12-11T07:44:14.452Z,6.30
2022-12-11T07:46:43.061Z,6.03
2022-12-11T07:49:11.195Z,5.40
2022-12-11T07:51:40.307Z,6.03
2022-12-11T07:54:15.330Z,6.03
2022-12-11T07:56:47.455Z,6.13
2022-12-11T07:59:18.541Z,5.27
2022-12-11T08:01:47.100Z,6.40
2022-12-11T08:04:15.908Z,6.43
2022-12-11T08:06:44.839Z,6.37
2022-12-11T08:09:20.940Z,5.67
2022-12-11T08:11:52.024Z,5.93
2022-12-11T08:14:21.270Z,5.90
2022-12-11T08:16:49.981Z,6.17
2022-12-11T08:19:18.350Z,5.87
2022-12-11T08:21:46.904Z,6.13
2022-12-11T08:24:16.479Z,5.33
2022-12-11T08:26:44.804Z,5.27
2022-12-11T08:29:14.713Z,5.30
2022-12-11T08:31:43.075Z,4.97
2022-12-11T08:34:14.299Z,4.70
2022-12-11T08:36:43.915Z,6.07
2022-12-11T08:39:13.592Z,4.87
2022-12-11T08:41:42.317Z,5.53
2022-12-11T08:44:16.913Z,5.27
2022-12-11T08:46:46.165Z,5.50
2022-12-11T08:49:14.793Z,5.33
2022-12-11T08:51:43.487Z,6.00
2022-12-11T08:54:12.677Z,5.60
2022-12-11T08:56:40.800Z,5.50
2022-12-11T08:59:09.437Z,5.43
2022-12-11T09:01:40.049Z,5.03
2022-12-11T09:04:08.390Z,6.43
2022-12-11T09:06:36.531Z,5.77
2022-12-11T09:09:06.004Z,5.60
2022-12-11T09:11:37.484Z,5.57
2022-12-11T09:14:08.122Z,5.57
2022-12-11T09:16:40.372Z,5.13
2022-12-11T09:19:12.799Z,5.07
2022-12-11T09:21:43.635Z,5.80
2022-12-11T09:24:13.816Z,5.70
2022-12-11T09:26:42.637Z,5.27
2022-12-11T09:29:12.041Z,5.90
2022-12-11T09:31:42.569Z,6.23
2022-12-11T09:34:14.129Z,5.77
2022-12-11T09:36:44.419Z,6.40
2022-12-11T09:39:14.456Z,7.10
2022-12-11T09:41:51.127Z,5.93
2022-12-11T09:44:32.151Z,5.27
2022-12-11T09:47:03.164Z,6.87
2022-12-11T09:49:38.655Z,5.67
2022-12-11T09:52:19.728Z,5.83
2022-12-11T09:54:52.387Z,6.57
2022-12-11T09:57:33.568Z,5.90
2022-12-11T10:00:13.729Z,7.47
2022-12-11T10:03:20.202Z,5.37
2022-12-11T10:05:58.391Z,5.47
2022-12-11T10:08:36.226Z,6.60
2022-12-11T10:11:20.477Z,5.70
2022-12-11T10:13:56.983Z,5.77
2022-12-11T10:16:36.800Z,5.67
2022-12-11T10:19:07.103Z,5.43
2022-12-11T10:21:41.742Z,5.53
2022-12-11T10:24:40.735Z,5.50
2022-12-11T10:27:16.670Z,5.57
2022-12-11T10:29:45.711Z,6.23
2022-12-11T10:32:24.041Z,6.37
2022-12-11T10:35:00.665Z,5.13
2022-12-11T10:37:28.862Z,5.13
2022-12-11T10:39:57.124Z,4.40
2022-12-11T10:42:25.547Z,4.60
2022-12-11T10:44:58.681Z,5.00
2022-12-11T10:47:27.815Z,5.03
2022-12-11T10:49:59.014Z,4.57
2022-12-11T10:52:30.029Z,5.27
2022-12-11T10:55:02.752Z,4.53
2022-12-11T10:57:34.681Z,5.43
2022-12-11T11:00:06.135Z,5.23
2022-12-11T11:02:37.220Z,6.40
2022-12-11T11:05:16.858Z,6.10
2022-12-11T11:07:45.694Z,5.73
2022-12-11T11:10:18.990Z,5.00
2022-12-11T11:12:49.225Z,4.90
2022-12-11T11:15:21.059Z,4.73
2022-12-11T11:17:55.347Z,5.40
2022-12-11T11:20:28.578Z,5.60
2022-12-11T11:22:58.860Z,4.40
2022-12-11T11:25:29.957Z,5.57
2022-12-11T11:28:01.120Z,5.33
2022-12-11T11:30:32.256Z,5.50
2022-12-11T11:33:05.012Z,4.57
2022-12-11T11:35:35.168Z,6.07
2022-12-11T11:38:07.064Z,5.27
2022-12-11T11:40:39.650Z,7.07
2022-12-11T11:43:17.842Z,6.07
2022-12-11T11:45:52.743Z,5.97
2022-12-11T11:48:34.515Z,5.30
2022-12-11T11:51:16.845Z,4.90
2022-12-11T11:53:49.752Z,6.10
2022-12-11T11:56:22.700Z,5.40
2022-12-11T11:59:07.274Z,4.63
2022-12-11T12:01:35.733Z,6.07
2022-12-11T12:04:06.254Z,5.60
2022-12-11T12:06:51.170Z,5.63
2022-12-11T12:09:35.085Z,5.70
2022-12-11T12:12:13.925Z,5.80
2022-12-11T12:14:54.765Z,5.80
2022-12-11T12:17:32.926Z,4.87
2022-12-11T12:20:10.475Z,4.60
2022-12-11T12:22:55.392Z,6.17
2022-12-11T12:25:28.067Z,4.70
2022-12-11T12:28:05.934Z,5.13
2022-12-11T12:30:46.163Z,5.10
2022-12-11T12:33:27.200Z,5.17
2022-12-11T12:36:06.632Z,5.60
2022-12-11T12:38:43.994Z,5.17
2022-12-11T12:41:19.901Z,5.30
2022-12-11T12:44:02.199Z,3.77
2022-12-11T12:46:43.828Z,5.77
2022-12-11T12:49:17.132Z,4.10
2022-12-11T12:51:46.532Z,4.43
2022-12-11T12:54:20.640Z,5.23
2022-12-11T12:56:49.820Z,4.60
2022-12-11T12:59:23.159Z,4.87
2022-12-11T13:01:56.882Z,4.70
2022-12-11T13:04:57.893Z,4.60
2022-12-11T13:07:30.940Z,4.87
2022-12-11T13:10:08.331Z,4.20
2022-12-11T13:12:44.192Z,4.47
2022-12-11T13:15:30.500Z,5.07
2022-12-11T13:17:59.678Z,4.17
2022-12-11T13:20:30.221Z,5.50
2022-12-11T13:23:17.142Z,5.47
2022-12-11T13:25:53.291Z,4.67
2022-12-11T13:28:31.270Z,5.30
2022-12-11T13:31:37.904Z,5.37
2022-12-11T13:34:16.524Z,5.37
2022-12-11T13:36:49.644Z,4.80
2022-12-11T13:39:21.027Z,4.57
2022-12-11T13:41:54.905Z,5.43
2022-12-11T13:44:27.440Z,4.70
2022-12-11T13:46:58.292Z,5.27
2022-12-11T13:49:29.869Z,5.17
2022-12-11T13:51:59.965Z,4.90
2022-12-11T13:54:30.362Z,5.13
2022-12-11T13:57:06.029Z,5.10
2022-12-11T13:59:36.521Z,5.20
2022-12-11T14:02:13.336Z,5.50
2022-12-11T14:04:42.392Z,5.63
2022-12-11T14:07:11.796Z,5.73
2022-12-11T14:09:45.548Z,6.70
2022-12-11T14:12:22.868Z,5.80
2022-12-11T14:14:53.518Z,6.37
2022-12-11T14:17:26.471Z,5.40
2022-12-11T14:19:55.964Z,7.00
2022-12-11T14:22:27.325Z,6.40
2022-12-11T14:24:57.652Z,7.10
2022-12-11T14:27:28.586Z,7.10
2022-12-11T14:29:56.976Z,7.13
2022-12-11T14:32:33.172Z,6.80
2022-12-11T14:35:03.329Z,6.00
2022-12-11T14:37:32.316Z,6.90
2022-12-11T14:40:02.835Z,5.57
2022-12-11T14:42:36.298Z,7.00
2022-12-11T14:45:09.504Z,6.23
2022-12-11T14:47:43.829Z,6.37
2022-12-11T14:50:19.401Z,5.80
2022-12-11T14:52:52.851Z,5.50
2022-12-11T14:55:23.961Z,6.00
2022-12-11T14:57:57.841Z,5.43
2022-12-11T15:00:29.016Z,5.23
2022-12-11T15:03:02.566Z,4.87
2022-12-11T15:05:35.786Z,5.47
2022-12-11T15:08:24.793Z,6.13
2022-12-11T15:11:03.335Z,5.17
2022-12-11T15:13:34.179Z,5.00
2022-12-11T15:16:03.628Z,4.80
2022-12-11T15:18:36.643Z,6.13
2022-12-11T15:21:09.430Z,4.83
2022-12-11T15:23:50.125Z,5.67
2022-12-11T15:26:18.437Z,5.97
2022-12-11T15:28:48.599Z,5.00
2022-12-11T15:31:27.001Z,5.87
2022-12-11T15:33:55.665Z,4.93
2022-12-11T15:36:27.904Z,5.33
2022-12-11T15:38:56.445Z,5.63
2022-12-11T15:41:26.095Z,6.03
2022-12-11T15:43:59.184Z,6.23
2022-12-11T15:46:27.846Z,4.90
2022-12-11T15:48:57.849Z,5.50
2022-12-11T15:51:27.707Z,5.30
2022-12-11T15:53:55.889Z,5.83
2022-12-11T15:56:24.130Z,4.77
2022-12-11T15:58:52.604Z,6.13
2022-12-11T16:01:22.128Z,5.30
2022-12-11T16:03:51.508Z,7.13
2022-12-11T16:06:19.839Z,5.67
2022-12-11T16:08:48.197Z,4.70
2022-12-11T16:11:16.519Z,5.73
2022-12-11T16:13:45.131Z,5.73
2022-12-11T16:16:13.358Z,5.70
2022-12-11T16:18:43.057Z,6.17
2022-12-11T16:21:13.568Z,4.90
2022-12-11T16:23:43.791Z,5.03
2022-12-11T16:26:13.993Z,5.23
2022-12-11T16:28:42.402Z,5.10
2022-12-11T16:31:13.001Z,4.50
2022-12-11T16:33:44.292Z,4.63
2022-12-11T16:36:15.936Z,4.87
2022-12-11T16:38:53.119Z,4.93
2022-12-11T16:41:22.958Z,4.37
2022-12-11T16:43:51.842Z,4.97
2022-12-11T16:46:20.842Z,5.83
2022-12-11T16:48:51.225Z,5.77
2022-12-11T16:51:19.860Z,4.77
2022-12-11T16:53:48.832Z,4.77
2022-12-11T16:56:17.121Z,4.57
2022-12-11T16:58:47.758Z,5.63
2022-12-11T17:01:16.890Z,5.43
2022-12-11T17:03:45.544Z,4.73
2022-12-11T17:06:18.592Z,4.50
2022-12-11T17:08:47.163Z,3.87
2022-12-11T17:11:17.125Z,3.93
2022-12-11T17:13:45.715Z,3.80
2022-12-11T17:16:16.740Z,4.53
2022-12-11T17:18:45.704Z,3.90
2022-12-11T17:21:17.091Z,4.17
2022-12-11T17:23:46.247Z,4.00
2022-12-11T17:26:14.694Z,4.13
2022-12-11T17:28:43.411Z,4.03
2022-12-11T17:31:17.514Z,3.77
2022-12-11T17:33:46.323Z,4.00
2022-12-11T17:36:18.894Z,4.33
2022-12-11T17:38:48.231Z,5.03
2022-12-11T17:41:20.649Z,4.87
2022-12-11T17:43:50.702Z,5.20
2022-12-11T17:46:20.307Z,5.17
2022-12-11T17:48:49.399Z,4.07
2022-12-11T17:51:24.707Z,5.60
2022-12-11T17:53:53.553Z,5.00
2022-12-11T17:56:21.698Z,4.37
2022-12-11T17:58:49.947Z,4.93
2022-12-11T18:01:18.838Z,4.67
2022-12-11T18:03:47.778Z,5.00
2022-12-11T18:06:20.036Z,4.47
2022-12-11T18:08:48.771Z,4.50
2022-12-11T18:11:19.033Z,3.70
2022-12-11T18:13:48.105Z,4.10
2022-12-11T18:16:18.925Z,4.40
2022-12-11T18:18:48.239Z,5.13
2022-12-11T18:21:19.674Z,6.27
2022-12-11T18:23:47.842Z,4.90
2022-12-11T18:26:16.442Z,5.83
2022-12-11T18:28:45.149Z,5.37
2022-12-11T18:31:14.976Z,4.87
2022-12-11T18:33:45.107Z,5.13
2022-12-11T18:36:15.023Z,5.27
2022-12-11T18:38:45.426Z,5.73
2022-12-11T18:41:14.907Z,4.73
2022-12-11T18:43:44.257Z,5.33
2022-12-11T18:46:14.862Z,5.10
2022-12-11T18:48:43.990Z,5.03
2022-12-11T18:51:16.579Z,5.70
2022-12-11T18:53:46.531Z,4.93
2022-12-11T18:56:17.401Z,4.67
2022-12-11T18:58:45.802Z,6.00
2022-12-11T19:01:18.513Z,5.07
2022-12-11T19:03:46.729Z,4.90
2022-12-11T19:06:17.477Z,4.70
2022-12-11T19:08:48.036Z,4.93
2022-12-11T19:11:17.225Z,5.07
2022-12-11T19:13:45.979Z,5.43
2022-12-11T19:16:19.197Z,5.27
2022-12-11T19:18:49.042Z,5.23
2022-12-11T19:21:18.644Z,5.23
2022-12-11T19:23:48.895Z,4.60
2022-12-11T19:26:19.816Z,5.27
2022-12-11T19:28:49.200Z,4.03
2022-12-11T19:31:20.480Z,5.30
2022-12-11T19:33:49.225Z,5.47
2022-12-11T19:36:22.239Z,4.80
2022-12-11T19:38:55.362Z,5.47
2022-12-11T19:41:29.021Z,4.57
2022-12-11T19:44:00.929Z,4.67
2022-12-11T19:46:31.224Z,5.10
2022-12-11T19:49:00.380Z,5.57
2022-12-11T19:51:30.422Z,5.00
2022-12-11T19:54:03.005Z,4.17
2022-12-11T19:56:31.393Z,5.33
2022-12-11T19:59:00.861Z,5.27
2022-12-11T20:01:31.436Z,4.93
2022-12-11T20:04:02.013Z,4.60
2022-12-11T20:06:31.412Z,4.57
2022-12-11T20:09:01.620Z,5.00
2022-12-11T20:11:29.988Z,4.43
2022-12-11T20:13:58.721Z,3.77
2022-12-11T20:17:01.733Z,5.10
2022-12-11T20:19:16.230Z,4.67
2022-12-11T20:21:44.459Z,5.73
2022-12-11T20:24:13.996Z,5.20
2022-12-11T20:26:42.262Z,5.07
2022-12-11T20:29:10.522Z,4.43
2022-12-11T20:31:39.134Z,5.47
2022-12-11T20:34:08.317Z,4.97
2022-12-11T20:36:36.693Z,4.30
2022-12-11T20:39:05.335Z,4.80
2022-12-11T20:41:35.294Z,4.93
2022-12-11T20:44:03.510Z,4.73
2022-12-11T20:46:31.710Z,5.40
2022-12-11T20:49:00.015Z,4.70
2022-12-11T20:51:29.355Z,4.73
2022-12-11T20:54:01.931Z,4.87
2022-12-11T20:56:32.169Z,5.30
2022-12-11T20:59:02.009Z,5.50
2022-12-11T21:01:32.558Z,4.57
2022-12-11T21:04:01.038Z,4.70
2022-12-11T21:06:31.815Z,4.17
2022-12-11T21:09:01.379Z,5.57
2022-12-11T21:11:30.031Z,4.53
2022-12-11T21:13:58.299Z,5.33
2022-12-11T21:16:28.100Z,5.00
2022-12-11T21:18:59.300Z,5.80
2022-12-11T21:21:27.884Z,5.30
2022-12-11T21:23:56.168Z,5.43
2022-12-11T21:26:24.485Z,5.23
2022-12-11T21:28:53.653Z,5.00
2022-12-11T21:31:22.036Z,5.40
2022-12-11T21:33:52.383Z,4.73
2022-12-11T21:36:20.746Z,4.03
2022-12-11T21:38:50.181Z,4.17
2022-12-11T21:41:21.300Z,4.47
2022-12-11T21:44:56.636Z,4.90
2022-12-11T21:46:40.996Z,5.13
2022-12-11T21:49:11.988Z,4.47
2022-12-11T21:51:46.913Z,4.47
2022-12-11T21:54:18.881Z,3.63
2022-12-11T21:56:48.003Z,4.53
2022-12-11T21:59:16.171Z,4.57
2022-12-11T22:01:46.298Z,4.33
2022-12-11T22:04:18.469Z,5.17
2022-12-11T22:06:47.984Z,4.53
2022-12-11T22:09:17.871Z,4.43
2022-12-11T22:11:47.629Z,4.83
2022-12-11T22:14:18.503Z,4.30
2022-12-11T22:16:47.062Z,4.20
2022-12-11T22:19:16.968Z,3.80
2022-12-11T22:21:45.231Z,4.13
2022-12-11T22:24:14.111Z,3.43
2022-12-11T22:26:43.434Z,4.43
2022-12-11T22:29:11.576Z,3.70
2022-12-11T22:31:39.651Z,4.13
2022-12-11T22:34:08.038Z,4.27
2022-12-11T22:36:38.741Z,3.20
2022-12-11T22:39:06.988Z,4.80
2022-12-11T22:41:38.694Z,4.73
2022-12-11T22:44:06.844Z,4.00
2022-12-11T22:46:34.957Z,5.20
2022-12-11T22:49:03.327Z,4.07
2022-12-11T22:51:31.631Z,4.93
2022-12-11T22:54:01.212Z,3.87
2022-12-11T22:56:29.999Z,4.23
2022-12-11T22:58:58.264Z,4.27
2022-12-11T23:01:27.696Z,5.20
2022-12-11T23:03:56.539Z,4.93
2022-12-11T23:06:26.114Z,4.63
2022-12-11T23:08:55.973Z,4.97
2022-12-11T23:11:28.329Z,4.03
2022-12-11T23:13:57.155Z,6.20
2022-12-11T23:16:26.999Z,3.83
2022-12-11T23:18:56.278Z,4.50
2022-12-11T23:21:25.103Z,4.77
2022-12-11T23:23:53.941Z,4.13
2022-12-11T23:26:23.332Z,4.37
2022-12-11T23:28:52.896Z,4.10
2022-12-11T23:31:21.187Z,4.07
2022-12-11T23:33:49.384Z,4.23
2022-12-11T23:36:17.661Z,3.80
2022-12-11T23:38:52.639Z,4.00
2022-12-11T23:41:23.499Z,3.03
2022-12-11T23:43:53.506Z,3.33
2022-12-11T23:46:23.561Z,4.57
2022-12-11T23:48:53.276Z,3.67
2022-12-11T23:51:23.064Z,3.33
2022-12-11T23:53:51.364Z,4.63
2022-12-11T23:56:22.623Z,3.93
2022-12-11T23:58:52.787Z,3.30
